sensor_id;sensor_type;location;lat;lon;timestamp;P1;durP1;ratioP1;P2;durP2;ratioP2
8986;SDS011;4529;51.360;12.474;2023-05-10T00:03:52;3.97;;;3.67;;
8986;SDS011;4529;51.360;12.474;2023-05-10T00:08:57;7.17;;;4.00;;
8986;SDS011;4529;51.360;12.474;2023-05-10T00:14:01;5.03;;;3.90;;
8986;SDS011;4529;51.360;12.474;2023-05-10T00:19:05;7.90;;;3.87;;
8986;SDS011;4529;51.360;12.474;2023-05-10T00:24:09;4.37;;;3.50;;
8986;SDS011;4529;51.360;12.474;2023-05-10T00:29:13;4.30;;;3.70;;
8986;SDS011;4529;51.360;12.474;2023-05-10T00:34:17;4.37;;;3.97;;
8986;SDS011;4529;51.360;12.474;2023-05-10T00:39:21;5.13;;;3.60;;
8986;SDS011;4529;51.360;12.474;2023-05-10T00:44:25;4.37;;;3.97;;
8986;SDS011;4529;51.360;12.474;2023-05-10T00:49:30;4.40;;;3.53;;
8986;SDS011;4529;51.360;12.474;2023-05-10T00:54:34;5.00;;;3.87;;
8986;SDS011;4529;51.360;12.474;2023-05-10T00:59:37;6.07;;;3.80;;
8986;SDS011;4529;51.360;12.474;2023-05-10T01:04:41;3.90;;;3.60;;
8986;SDS011;4529;51.360;12.474;2023-05-10T01:09:44;5.23;;;4.00;;
8986;SDS011;4529;51.360;12.474;2023-05-10T01:14:51;6.07;;;3.50;;
8986;SDS011;4529;51.360;12.474;2023-05-10T01:19:54;3.97;;;3.60;;
8986;SDS011;4529;51.360;12.474;2023-05-10T01:25:10;4.10;;;3.70;;
8986;SDS011;4529;51.360;12.474;2023-05-10T01:30:27;5.60;;;3.90;;
8986;SDS011;4529;51.360;12.474;2023-05-10T01:36:02;3.93;;;3.53;;
8986;SDS011;4529;51.360;12.474;2023-05-10T01:41:21;4.50;;;3.50;;
8986;SDS011;4529;51.360;12.474;2023-05-10T01:46:24;4.33;;;3.47;;
8986;SDS011;4529;51.360;12.474;2023-05-10T01:51:40;5.63;;;3.57;;
8986;SDS011;4529;51.360;12.474;2023-05-10T01:56:35;6.37;;;3.63;;
8986;SDS011;4529;51.360;12.474;2023-05-10T02:01:39;4.20;;;3.73;;
8986;SDS011;4529;51.360;12.474;2023-05-10T02:06:43;4.60;;;3.70;;
8986;SDS011;4529;51.360;12.474;2023-05-10T02:11:47;3.77;;;3.40;;
8986;SDS011;4529;51.360;12.474;2023-05-10T02:16:50;6.17;;;3.63;;
8986;SDS011;4529;51.360;12.474;2023-05-10T02:21:53;3.70;;;3.40;;
8986;SDS011;4529;51.360;12.474;2023-05-10T02:26:57;5.60;;;3.60;;
8986;SDS011;4529;51.360;12.474;2023-05-10T02:32:00;3.77;;;3.40;;
8986;SDS011;4529;51.360;12.474;2023-05-10T02:37:04;3.67;;;3.37;;
8986;SDS011;4529;51.360;12.474;2023-05-10T02:42:07;4.00;;;3.60;;
8986;SDS011;4529;51.360;12.474;2023-05-10T02:47:10;4.13;;;3.60;;
8986;SDS011;4529;51.360;12.474;2023-05-10T02:52:19;7.10;;;3.90;;
8986;SDS011;4529;51.360;12.474;2023-05-10T02:57:22;4.03;;;3.63;;
8986;SDS011;4529;51.360;12.474;2023-05-10T03:02:29;5.77;;;3.80;;
8986;SDS011;4529;51.360;12.474;2023-05-10T03:07:33;4.63;;;3.70;;
8986;SDS011;4529;51.360;12.474;2023-05-10T03:12:41;4.07;;;3.67;;
8986;SDS011;4529;51.360;12.474;2023-05-10T03:18:00;3.97;;;3.67;;
8986;SDS011;4529;51.360;12.474;2023-05-10T03:28:27;3.77;;;3.37;;
8986;SDS011;4529;51.360;12.474;2023-05-10T03:33:30;4.60;;;4.00;;
8986;SDS011;4529;51.360;12.474;2023-05-10T03:38:34;4.80;;;3.90;;
8986;SDS011;4529;51.360;12.474;2023-05-10T03:43:38;5.30;;;3.87;;
8986;SDS011;4529;51.360;12.474;2023-05-10T03:48:42;4.27;;;3.63;;
8986;SDS011;4529;51.360;12.474;2023-05-10T03:53:47;4.43;;;3.90;;
8986;SDS011;4529;51.360;12.474;2023-05-10T03:58:51;3.90;;;3.50;;
8986;SDS011;4529;51.360;12.474;2023-05-10T04:03:55;5.13;;;3.37;;
8986;SDS011;4529;51.360;12.474;2023-05-10T04:08:59;3.97;;;3.63;;
8986;SDS011;4529;51.360;12.474;2023-05-10T04:14:03;4.10;;;3.70;;
8986;SDS011;4529;51.360;12.474;2023-05-10T04:19:07;4.07;;;3.63;;
8986;SDS011;4529;51.360;12.474;2023-05-10T04:24:12;4.43;;;3.80;;
8986;SDS011;4529;51.360;12.474;2023-05-10T04:29:15;3.67;;;3.30;;
8986;SDS011;4529;51.360;12.474;2023-05-10T04:34:20;5.43;;;3.17;;
8986;SDS011;4529;51.360;12.474;2023-05-10T04:39:24;4.60;;;3.40;;
8986;SDS011;4529;51.360;12.474;2023-05-10T04:44:29;3.80;;;3.10;;
8986;SDS011;4529;51.360;12.474;2023-05-10T04:49:33;3.63;;;3.07;;
8986;SDS011;4529;51.360;12.474;2023-05-10T04:54:37;3.83;;;3.20;;
8986;SDS011;4529;51.360;12.474;2023-05-10T04:59:41;5.17;;;3.37;;
8986;SDS011;4529;51.360;12.474;2023-05-10T05:04:46;5.47;;;3.50;;
8986;SDS011;4529;51.360;12.474;2023-05-10T05:09:49;7.27;;;3.50;;
8986;SDS011;4529;51.360;12.474;2023-05-10T05:14:54;6.13;;;3.70;;
8986;SDS011;4529;51.360;12.474;2023-05-10T05:19:58;4.37;;;3.83;;
8986;SDS011;4529;51.360;12.474;2023-05-10T05:25:02;4.63;;;3.60;;
8986;SDS011;4529;51.360;12.474;2023-05-10T05:30:06;3.80;;;3.20;;
8986;SDS011;4529;51.360;12.474;2023-05-10T05:35:10;5.30;;;3.27;;
8986;SDS011;4529;51.360;12.474;2023-05-10T05:40:13;3.47;;;3.00;;
8986;SDS011;4529;51.360;12.474;2023-05-10T05:45:17;3.87;;;3.20;;
8986;SDS011;4529;51.360;12.474;2023-05-10T05:50:20;5.87;;;3.00;;
8986;SDS011;4529;51.360;12.474;2023-05-10T05:55:23;3.27;;;2.97;;
8986;SDS011;4529;51.360;12.474;2023-05-10T06:00:28;2.90;;;2.67;;
8986;SDS011;4529;51.360;12.474;2023-05-10T06:05:31;5.03;;;3.17;;
8986;SDS011;4529;51.360;12.474;2023-05-10T06:10:35;4.60;;;3.10;;
8986;SDS011;4529;51.360;12.474;2023-05-10T06:15:41;3.20;;;2.90;;
8986;SDS011;4529;51.360;12.474;2023-05-10T06:20:45;3.27;;;2.93;;
8986;SDS011;4529;51.360;12.474;2023-05-10T06:25:49;5.53;;;3.23;;
8986;SDS011;4529;51.360;12.474;2023-05-10T06:30:53;4.13;;;3.10;;
8986;SDS011;4529;51.360;12.474;2023-05-10T06:35:57;3.60;;;2.90;;
8986;SDS011;4529;51.360;12.474;2023-05-10T06:41:01;3.80;;;3.30;;
8986;SDS011;4529;51.360;12.474;2023-05-10T06:46:05;3.50;;;3.03;;
8986;SDS011;4529;51.360;12.474;2023-05-10T06:51:08;3.57;;;3.27;;
8986;SDS011;4529;51.360;12.474;2023-05-10T06:56:12;3.97;;;3.03;;
8986;SDS011;4529;51.360;12.474;2023-05-10T07:01:15;4.60;;;2.70;;
8986;SDS011;4529;51.360;12.474;2023-05-10T07:06:19;3.40;;;3.10;;
8986;SDS011;4529;51.360;12.474;2023-05-10T07:11:23;3.40;;;3.10;;
8986;SDS011;4529;51.360;12.474;2023-05-10T07:16:26;3.83;;;3.10;;
8986;SDS011;4529;51.360;12.474;2023-05-10T07:21:30;3.50;;;3.00;;
8986;SDS011;4529;51.360;12.474;2023-05-10T07:26:33;3.70;;;2.80;;
8986;SDS011;4529;51.360;12.474;2023-05-10T07:31:38;4.43;;;3.07;;
8986;SDS011;4529;51.360;12.474;2023-05-10T07:36:42;3.33;;;3.03;;
8986;SDS011;4529;51.360;12.474;2023-05-10T07:41:45;3.27;;;2.97;;
8986;SDS011;4529;51.360;12.474;2023-05-10T07:46:49;4.80;;;3.70;;
8986;SDS011;4529;51.360;12.474;2023-05-10T07:51:53;4.60;;;3.10;;
8986;SDS011;4529;51.360;12.474;2023-05-10T07:56:57;3.27;;;2.97;;
8986;SDS011;4529;51.360;12.474;2023-05-10T08:02:02;3.83;;;3.30;;
8986;SDS011;4529;51.360;12.474;2023-05-10T08:07:06;4.20;;;3.17;;
8986;SDS011;4529;51.360;12.474;2023-05-10T08:12:10;3.40;;;3.10;;
8986;SDS011;4529;51.360;12.474;2023-05-10T08:17:14;4.90;;;3.43;;
8986;SDS011;4529;51.360;12.474;2023-05-10T08:22:18;8.23;;;3.60;;
8986;SDS011;4529;51.360;12.474;2023-05-10T08:27:22;5.10;;;3.30;;
8986;SDS011;4529;51.360;12.474;2023-05-10T08:32:27;3.60;;;3.13;;
8986;SDS011;4529;51.360;12.474;2023-05-10T08:37:30;4.20;;;3.80;;
8986;SDS011;4529;51.360;12.474;2023-05-10T08:42:34;9.57;;;3.40;;
8986;SDS011;4529;51.360;12.474;2023-05-10T08:47:38;5.90;;;3.60;;
8986;SDS011;4529;51.360;12.474;2023-05-10T08:52:42;3.97;;;3.57;;
8986;SDS011;4529;51.360;12.474;2023-05-10T08:57:46;4.10;;;3.70;;
8986;SDS011;4529;51.360;12.474;2023-05-10T09:02:50;4.20;;;3.80;;
8986;SDS011;4529;51.360;12.474;2023-05-10T09:07:53;5.33;;;3.67;;
8986;SDS011;4529;51.360;12.474;2023-05-10T09:12:57;3.80;;;3.50;;
8986;SDS011;4529;51.360;12.474;2023-05-10T09:18:00;4.13;;;3.80;;
8986;SDS011;4529;51.360;12.474;2023-05-10T09:23:05;4.60;;;4.20;;
8986;SDS011;4529;51.360;12.474;2023-05-10T09:28:09;4.73;;;3.90;;
8986;SDS011;4529;51.360;12.474;2023-05-10T09:33:12;4.60;;;4.00;;
8986;SDS011;4529;51.360;12.474;2023-05-10T09:38:16;4.57;;;3.90;;
8986;SDS011;4529;51.360;12.474;2023-05-10T09:43:20;4.90;;;4.40;;
8986;SDS011;4529;51.360;12.474;2023-05-10T09:48:24;6.00;;;4.23;;
8986;SDS011;4529;51.360;12.474;2023-05-10T09:53:28;6.37;;;4.53;;
8986;SDS011;4529;51.360;12.474;2023-05-10T09:58:35;4.90;;;4.40;;
8986;SDS011;4529;51.360;12.474;2023-05-10T10:03:41;6.97;;;4.80;;
8986;SDS011;4529;51.360;12.474;2023-05-10T10:08:41;4.97;;;4.53;;
8986;SDS011;4529;51.360;12.474;2023-05-10T10:13:46;4.90;;;4.50;;
8986;SDS011;4529;51.360;12.474;2023-05-10T10:18:49;5.27;;;4.77;;
8986;SDS011;4529;51.360;12.474;2023-05-10T10:23:53;6.03;;;5.03;;
8986;SDS011;4529;51.360;12.474;2023-05-10T10:34:06;5.10;;;4.60;;
8986;SDS011;4529;51.360;12.474;2023-05-10T10:39:09;6.03;;;5.27;;
8986;SDS011;4529;51.360;12.474;2023-05-10T10:54:50;5.70;;;5.07;;
8986;SDS011;4529;51.360;12.474;2023-05-10T11:00:17;7.27;;;5.17;;
8986;SDS011;4529;51.360;12.474;2023-05-10T11:10:38;5.77;;;5.13;;
8986;SDS011;4529;51.360;12.474;2023-05-10T11:15:47;5.80;;;4.90;;
8986;SDS011;4529;51.360;12.474;2023-05-10T11:20:55;6.07;;;5.07;;
8986;SDS011;4529;51.360;12.474;2023-05-10T11:25:58;6.07;;;5.17;;
8986;SDS011;4529;51.360;12.474;2023-05-10T11:31:01;7.00;;;5.50;;
8986;SDS011;4529;51.360;12.474;2023-05-10T11:36:04;6.07;;;5.47;;
8986;SDS011;4529;51.360;12.474;2023-05-10T11:41:08;6.90;;;5.87;;
8986;SDS011;4529;51.360;12.474;2023-05-10T11:46:11;6.40;;;5.47;;
8986;SDS011;4529;51.360;12.474;2023-05-10T11:51:15;7.30;;;5.67;;
8986;SDS011;4529;51.360;12.474;2023-05-10T11:56:18;7.63;;;6.07;;
8986;SDS011;4529;51.360;12.474;2023-05-10T12:01:22;6.67;;;5.90;;
8986;SDS011;4529;51.360;12.474;2023-05-10T12:06:29;7.20;;;6.00;;
8986;SDS011;4529;51.360;12.474;2023-05-10T12:11:33;11.03;;;6.90;;
8986;SDS011;4529;51.360;12.474;2023-05-10T12:16:36;8.43;;;6.53;;
8986;SDS011;4529;51.360;12.474;2023-05-10T12:21:40;7.80;;;6.63;;
8986;SDS011;4529;51.360;12.474;2023-05-10T12:26:45;7.53;;;6.73;;
8986;SDS011;4529;51.360;12.474;2023-05-10T12:31:52;7.40;;;6.70;;
8986;SDS011;4529;51.360;12.474;2023-05-10T12:36:55;6.70;;;6.00;;
8986;SDS011;4529;51.360;12.474;2023-05-10T12:41:58;6.60;;;5.83;;
8986;SDS011;4529;51.360;12.474;2023-05-10T12:47:02;8.00;;;6.37;;
8986;SDS011;4529;51.360;12.474;2023-05-10T12:52:05;7.87;;;6.23;;
8986;SDS011;4529;51.360;12.474;2023-05-10T12:57:09;6.77;;;6.17;;
8986;SDS011;4529;51.360;12.474;2023-05-10T13:02:12;7.20;;;5.93;;
8986;SDS011;4529;51.360;12.474;2023-05-10T13:07:16;7.67;;;6.10;;
8986;SDS011;4529;51.360;12.474;2023-05-10T13:12:19;8.13;;;5.90;;
8986;SDS011;4529;51.360;12.474;2023-05-10T13:17:25;5.97;;;5.37;;
8986;SDS011;4529;51.360;12.474;2023-05-10T13:22:26;6.20;;;5.60;;
8986;SDS011;4529;51.360;12.474;2023-05-10T13:27:29;7.50;;;5.80;;
8986;SDS011;4529;51.360;12.474;2023-05-10T13:32:33;6.43;;;5.83;;
8986;SDS011;4529;51.360;12.474;2023-05-10T13:37:36;6.07;;;5.47;;
8986;SDS011;4529;51.360;12.474;2023-05-10T13:42:40;6.50;;;5.53;;
8986;SDS011;4529;51.360;12.474;2023-05-10T13:47:43;5.97;;;5.43;;
8986;SDS011;4529;51.360;12.474;2023-05-10T13:52:47;5.67;;;4.83;;
8986;SDS011;4529;51.360;12.474;2023-05-10T13:57:50;5.80;;;5.20;;
8986;SDS011;4529;51.360;12.474;2023-05-10T14:02:54;5.57;;;5.07;;
8986;SDS011;4529;51.360;12.474;2023-05-10T14:07:59;5.50;;;5.00;;
8986;SDS011;4529;51.360;12.474;2023-05-10T14:13:03;4.60;;;4.20;;
8986;SDS011;4529;51.360;12.474;2023-05-10T14:18:06;4.70;;;4.30;;
8986;SDS011;4529;51.360;12.474;2023-05-10T14:23:10;4.60;;;4.20;;
8986;SDS011;4529;51.360;12.474;2023-05-10T14:28:15;4.20;;;3.83;;
8986;SDS011;4529;51.360;12.474;2023-05-10T14:33:19;3.50;;;3.20;;
8986;SDS011;4529;51.360;12.474;2023-05-10T14:38:23;3.53;;;3.30;;
8986;SDS011;4529;51.360;12.474;2023-05-10T14:43:27;3.20;;;2.90;;
8986;SDS011;4529;51.360;12.474;2023-05-10T14:48:31;3.57;;;3.27;;
8986;SDS011;4529;51.360;12.474;2023-05-10T14:53:35;3.83;;;3.43;;
8986;SDS011;4529;51.360;12.474;2023-05-10T14:58:39;4.33;;;3.37;;
8986;SDS011;4529;51.360;12.474;2023-05-10T15:03:44;3.30;;;3.10;;
8986;SDS011;4529;51.360;12.474;2023-05-10T15:08:47;4.00;;;3.70;;
8986;SDS011;4529;51.360;12.474;2023-05-10T15:13:51;3.60;;;3.30;;
8986;SDS011;4529;51.360;12.474;2023-05-10T15:18:54;2.87;;;2.67;;
8986;SDS011;4529;51.360;12.474;2023-05-10T15:23:58;3.10;;;2.90;;
8986;SDS011;4529;51.360;12.474;2023-05-10T15:29:01;3.00;;;2.70;;
8986;SDS011;4529;51.360;12.474;2023-05-10T15:34:04;1.73;;;1.63;;
8986;SDS011;4529;51.360;12.474;2023-05-10T15:39:08;1.43;;;1.40;;
8986;SDS011;4529;51.360;12.474;2023-05-10T15:44:11;1.40;;;1.30;;
8986;SDS011;4529;51.360;12.474;2023-05-10T15:49:15;1.33;;;1.30;;
8986;SDS011;4529;51.360;12.474;2023-05-10T15:54:18;1.20;;;1.10;;
8986;SDS011;4529;51.360;12.474;2023-05-10T15:59:22;0.90;;;0.90;;
8986;SDS011;4529;51.360;12.474;2023-05-10T16:04:26;1.60;;;1.20;;
8986;SDS011;4529;51.360;12.474;2023-05-10T16:09:29;0.93;;;0.93;;
8986;SDS011;4529;51.360;12.474;2023-05-10T16:14:33;1.30;;;1.20;;
8986;SDS011;4529;51.360;12.474;2023-05-10T16:19:36;1.00;;;1.00;;
8986;SDS011;4529;51.360;12.474;2023-05-10T16:24:40;1.17;;;1.17;;
8986;SDS011;4529;51.360;12.474;2023-05-10T16:29:46;1.10;;;1.03;;
8986;SDS011;4529;51.360;12.474;2023-05-10T16:34:49;1.10;;;1.00;;
8986;SDS011;4529;51.360;12.474;2023-05-10T16:39:53;1.10;;;1.10;;
8986;SDS011;4529;51.360;12.474;2023-05-10T16:44:58;1.10;;;1.10;;
8986;SDS011;4529;51.360;12.474;2023-05-10T16:50:01;1.70;;;1.60;;
8986;SDS011;4529;51.360;12.474;2023-05-10T16:55:05;1.97;;;1.87;;
8986;SDS011;4529;51.360;12.474;2023-05-10T17:00:09;1.83;;;1.73;;
8986;SDS011;4529;51.360;12.474;2023-05-10T17:05:13;2.30;;;2.20;;
8986;SDS011;4529;51.360;12.474;2023-05-10T17:10:17;2.10;;;2.00;;
8986;SDS011;4529;51.360;12.474;2023-05-10T17:15:21;3.80;;;2.90;;
8986;SDS011;4529;51.360;12.474;2023-05-10T17:20:26;3.10;;;2.80;;
8986;SDS011;4529;51.360;12.474;2023-05-10T17:25:30;2.80;;;2.60;;
8986;SDS011;4529;51.360;12.474;2023-05-10T17:30:34;2.80;;;2.60;;
8986;SDS011;4529;51.360;12.474;2023-05-10T17:35:38;2.60;;;2.40;;
8986;SDS011;4529;51.360;12.474;2023-05-10T17:40:42;2.63;;;2.43;;
8986;SDS011;4529;51.360;12.474;2023-05-10T17:45:48;2.70;;;2.13;;
8986;SDS011;4529;51.360;12.474;2023-05-10T17:50:50;2.73;;;2.03;;
8986;SDS011;4529;51.360;12.474;2023-05-10T17:55:54;2.27;;;2.10;;
8986;SDS011;4529;51.360;12.474;2023-05-10T18:00:59;2.00;;;1.90;;
8986;SDS011;4529;51.360;12.474;2023-05-10T18:06:03;2.10;;;2.00;;
8986;SDS011;4529;51.360;12.474;2023-05-10T18:11:06;2.03;;;1.93;;
8986;SDS011;4529;51.360;12.474;2023-05-10T18:16:10;2.90;;;2.70;;
8986;SDS011;4529;51.360;12.474;2023-05-10T18:21:15;2.93;;;2.57;;
8986;SDS011;4529;51.360;12.474;2023-05-10T18:26:19;2.90;;;2.70;;
8986;SDS011;4529;51.360;12.474;2023-05-10T18:31:22;3.40;;;3.10;;
8986;SDS011;4529;51.360;12.474;2023-05-10T18:36:26;2.83;;;2.63;;
8986;SDS011;4529;51.360;12.474;2023-05-10T18:41:29;2.90;;;2.70;;
8986;SDS011;4529;51.360;12.474;2023-05-10T18:46:33;2.80;;;2.60;;
8986;SDS011;4529;51.360;12.474;2023-05-10T18:51:36;2.83;;;2.63;;
8986;SDS011;4529;51.360;12.474;2023-05-10T18:56:40;2.80;;;2.60;;
8986;SDS011;4529;51.360;12.474;2023-05-10T19:01:43;2.90;;;2.70;;
8986;SDS011;4529;51.360;12.474;2023-05-10T19:06:47;3.97;;;2.60;;
8986;SDS011;4529;51.360;12.474;2023-05-10T19:11:50;2.70;;;2.50;;
8986;SDS011;4529;51.360;12.474;2023-05-10T19:16:53;4.30;;;2.70;;
8986;SDS011;4529;51.360;12.474;2023-05-10T19:21:58;3.43;;;2.77;;
8986;SDS011;4529;51.360;12.474;2023-05-10T19:27:01;2.70;;;2.50;;
8986;SDS011;4529;51.360;12.474;2023-05-10T19:32:05;2.70;;;2.50;;
8986;SDS011;4529;51.360;12.474;2023-05-10T19:37:08;2.80;;;2.60;;
8986;SDS011;4529;51.360;12.474;2023-05-10T19:42:12;2.70;;;2.50;;
8986;SDS011;4529;51.360;12.474;2023-05-10T19:47:15;2.70;;;2.50;;
8986;SDS011;4529;51.360;12.474;2023-05-10T19:52:18;2.90;;;2.70;;
8986;SDS011;4529;51.360;12.474;2023-05-10T19:57:22;2.70;;;2.50;;
8986;SDS011;4529;51.360;12.474;2023-05-10T20:02:25;3.17;;;2.90;;
8986;SDS011;4529;51.360;12.474;2023-05-10T20:07:29;3.13;;;2.90;;
8986;SDS011;4529;51.360;12.474;2023-05-10T20:12:32;3.60;;;3.30;;
8986;SDS011;4529;51.360;12.474;2023-05-10T20:17:36;3.70;;;3.40;;
8986;SDS011;4529;51.360;12.474;2023-05-10T20:22:40;3.63;;;3.27;;
8986;SDS011;4529;51.360;12.474;2023-05-10T20:27:43;3.60;;;3.30;;
8986;SDS011;4529;51.360;12.474;2023-05-10T20:32:46;3.80;;;3.50;;
8986;SDS011;4529;51.360;12.474;2023-05-10T20:37:50;5.80;;;3.80;;
8986;SDS011;4529;51.360;12.474;2023-05-10T20:42:53;3.93;;;3.53;;
8986;SDS011;4529;51.360;12.474;2023-05-10T20:47:57;4.17;;;3.77;;
8986;SDS011;4529;51.360;12.474;2023-05-10T20:53:01;4.50;;;4.10;;
8986;SDS011;4529;51.360;12.474;2023-05-10T20:58:05;4.80;;;3.90;;
8986;SDS011;4529;51.360;12.474;2023-05-10T21:03:08;5.37;;;4.73;;
8986;SDS011;4529;51.360;12.474;2023-05-10T21:08:12;5.00;;;4.50;;
8986;SDS011;4529;51.360;12.474;2023-05-10T21:13:15;4.80;;;4.40;;
8986;SDS011;4529;51.360;12.474;2023-05-10T21:18:19;4.63;;;4.23;;
8986;SDS011;4529;51.360;12.474;2023-05-10T21:23:22;4.80;;;4.40;;
8986;SDS011;4529;51.360;12.474;2023-05-10T21:28:26;4.83;;;4.33;;
8986;SDS011;4529;51.360;12.474;2023-05-10T21:33:29;4.37;;;4.03;;
8986;SDS011;4529;51.360;12.474;2023-05-10T21:38:33;4.60;;;4.20;;
8986;SDS011;4529;51.360;12.474;2023-05-10T21:43:36;4.87;;;4.40;;
8986;SDS011;4529;51.360;12.474;2023-05-10T21:48:40;4.60;;;4.20;;
8986;SDS011;4529;51.360;12.474;2023-05-10T21:53:43;6.10;;;4.60;;
8986;SDS011;4529;51.360;12.474;2023-05-10T21:58:47;5.10;;;4.60;;
8986;SDS011;4529;51.360;12.474;2023-05-10T22:03:50;4.50;;;4.10;;
8986;SDS011;4529;51.360;12.474;2023-05-10T22:08:53;4.53;;;4.13;;
8986;SDS011;4529;51.360;12.474;2023-05-10T22:13:57;4.60;;;4.20;;
8986;SDS011;4529;51.360;12.474;2023-05-10T22:19:01;6.13;;;4.23;;
8986;SDS011;4529;51.360;12.474;2023-05-10T22:24:05;4.70;;;4.30;;
8986;SDS011;4529;51.360;12.474;2023-05-10T22:29:08;6.87;;;4.33;;
8986;SDS011;4529;51.360;12.474;2023-05-10T22:34:13;4.37;;;3.90;;
8986;SDS011;4529;51.360;12.474;2023-05-10T22:39:16;4.57;;;4.17;;
8986;SDS011;4529;51.360;12.474;2023-05-10T22:44:19;4.30;;;3.93;;
8986;SDS011;4529;51.360;12.474;2023-05-10T22:49:23;5.10;;;4.00;;
8986;SDS011;4529;51.360;12.474;2023-05-10T22:54:27;4.70;;;4.30;;
8986;SDS011;4529;51.360;12.474;2023-05-10T22:59:30;4.50;;;4.10;;
8986;SDS011;4529;51.360;12.474;2023-05-10T23:04:34;4.47;;;4.07;;
8986;SDS011;4529;51.360;12.474;2023-05-10T23:09:37;4.40;;;4.00;;
8986;SDS011;4529;51.360;12.474;2023-05-10T23:14:40;4.37;;;3.97;;
8986;SDS011;4529;51.360;12.474;2023-05-10T23:19:44;4.27;;;3.87;;
8986;SDS011;4529;51.360;12.474;2023-05-10T23:24:48;4.50;;;4.10;;
8986;SDS011;4529;51.360;12.474;2023-05-10T23:29:52;4.53;;;4.13;;
8986;SDS011;4529;51.360;12.474;2023-05-10T23:34:55;4.10;;;3.80;;
8986;SDS011;4529;51.360;12.474;2023-05-10T23:39:59;5.03;;;4.53;;
8986;SDS011;4529;51.360;12.474;2023-05-10T23:45:03;5.17;;;4.67;;
8986;SDS011;4529;51.360;12.474;2023-05-10T23:50:06;5.00;;;4.60;;
8986;SDS011;4529;51.360;12.474;2023-05-10T23:55:10;4.87;;;4.47;;
